Time;durP1;ratioP1;P1;durP2;ratioP2;P2;SDS_P1;SDS_P2;PMS_P1;PMS_P2;Temp;Humidity;BMP_temperature;BMP_pressure;BME280_temperature;BME280_humidity;BME280_pressure;Samples;Min_cycle;Max_cycle;Signal;HPM_P1;HPM_P2
2023/05/21 00:02:10;;;;;;;7.55;5.43;;;13.80;99.90;;;;;;4976276;28;20113;-83
2023/05/21 00:04:40;;;;;;;8.10;5.53;;;13.80;99.90;;;;;;4943874;28;20043;-83
2023/05/21 00:07:07;;;;;;;7.13;5.45;;;13.90;99.90;;;;;;4975774;28;20041;-83
2023/05/21 00:09:33;;;;;;;9.02;5.80;;;13.80;99.90;;;;;;4975378;28;20054;-85
2023/05/21 00:11:59;;;;;;;8.68;5.65;;;13.80;99.90;;;;;;4962825;28;20113;-83
2023/05/21 00:14:25;;;;;;;7.57;5.53;;;13.80;99.90;;;;;;4984437;28;20178;-85
2023/05/21 00:16:51;;;;;;;6.28;5.35;;;13.80;99.90;;;;;;4956349;28;20629;-84
2023/05/21 00:19:17;;;;;;;7.95;5.20;;;13.80;99.90;;;;;;4960219;28;20070;-85
2023/05/21 00:21:44;;;;;;;6.68;5.25;;;13.80;99.90;;;;;;4972443;28;20054;-85
2023/05/21 00:24:10;;;;;;;7.05;5.38;;;13.80;99.90;;;;;;4952807;28;20039;-85
2023/05/21 00:26:36;;;;;;;7.03;4.97;;;13.80;99.90;;;;;;4988253;28;20205;-85
2023/05/21 00:29:02;;;;;;;5.13;4.55;;;13.80;99.90;;;;;;4989837;28;20097;-84
2023/05/21 00:31:28;;;;;;;7.43;5.40;;;13.80;99.90;;;;;;4957234;28;20122;-85
2023/05/21 00:33:54;;;;;;;10.45;5.70;;;13.70;99.90;;;;;;4955607;28;20617;-83
2023/05/21 00:36:22;;;;;;;7.63;5.38;;;13.70;99.90;;;;;;4948557;28;20042;-85
2023/05/21 00:38:49;;;;;;;6.55;5.25;;;13.70;99.90;;;;;;4963741;28;20098;-84
2023/05/21 00:41:15;;;;;;;8.50;5.82;;;13.80;99.90;;;;;;4971622;28;20042;-84
2023/05/21 00:43:43;;;;;;;6.88;5.38;;;13.70;99.90;;;;;;4975144;28;20039;-83
2023/05/21 00:46:19;;;;;;;6.75;5.20;;;13.70;99.90;;;;;;4955765;28;20074;-84
2023/05/21 00:48:46;;;;;;;8.57;5.18;;;13.70;99.90;;;;;;4986161;28;20049;-84
2023/05/21 00:51:17;;;;;;;7.45;5.25;;;13.70;99.90;;;;;;4974734;28;20085;-84
2023/05/21 00:53:44;;;;;;;6.28;5.63;;;13.70;99.90;;;;;;4974493;28;20035;-83
2023/05/21 00:56:10;;;;;;;9.05;5.45;;;13.70;99.90;;;;;;4984267;28;20121;-84
2023/05/21 00:58:43;;;;;;;8.43;5.53;;;13.70;99.90;;;;;;4963261;28;20118;-84
2023/05/21 01:01:12;;;;;;;6.43;5.32;;;13.70;99.90;;;;;;4976500;28;20046;-84
2023/05/21 01:03:39;;;;;;;6.47;5.40;;;13.70;99.90;;;;;;4994780;28;20394;-84
2023/05/21 01:06:06;;;;;;;9.23;5.80;;;13.70;99.90;;;;;;4962738;28;20037;-83
2023/05/21 01:08:39;;;;;;;7.88;5.47;;;13.70;99.90;;;;;;4983338;28;20100;-84
2023/05/21 01:11:07;;;;;;;11.10;6.07;;;13.70;99.90;;;;;;4936838;28;20057;-84
2023/05/21 01:13:35;;;;;;;7.97;5.38;;;13.70;99.90;;;;;;4971294;28;20042;-83
2023/05/21 01:16:02;;;;;;;7.65;5.60;;;13.70;99.90;;;;;;4942487;28;20057;-83
2023/05/21 01:18:28;;;;;;;9.10;5.95;;;13.70;99.90;;;;;;4941721;28;20031;-85
2023/05/21 01:20:54;;;;;;;7.25;5.40;;;13.60;99.90;;;;;;4972544;28;20046;-84
2023/05/21 01:23:22;;;;;;;8.32;5.63;;;13.60;99.90;;;;;;4948581;28;20376;-82
2023/05/21 01:25:51;;;;;;;8.45;6.03;;;13.50;99.90;;;;;;4927091;28;20077;-84
2023/05/21 01:28:16;;;;;;;8.45;6.13;;;13.50;99.90;;;;;;4943097;28;20042;-82
2023/05/21 01:30:43;;;;;;;8.40;5.70;;;13.40;99.90;;;;;;4945557;28;20387;-83
2023/05/21 01:33:28;;;;;;;8.05;5.45;;;13.40;99.90;;;;;;4927329;28;20074;-84
2023/05/21 01:36:10;;;;;;;8.82;5.40;;;13.40;99.90;;;;;;4943214;28;20062;-84
2023/05/21 01:38:47;;;;;;;7.70;5.85;;;13.40;99.90;;;;;;4953968;28;20050;-84
2023/05/21 01:41:16;;;;;;;8.65;6.00;;;13.40;99.90;;;;;;4977405;28;20125;-83
2023/05/21 01:43:45;;;;;;;8.30;6.32;;;13.40;99.90;;;;;;4961098;28;20068;-82
2023/05/21 01:46:22;;;;;;;7.25;6.07;;;13.40;99.90;;;;;;4945287;28;20065;-84
2023/05/21 01:48:49;;;;;;;8.13;6.30;;;13.40;99.90;;;;;;4948541;28;20053;-84
2023/05/21 01:51:15;;;;;;;7.90;5.60;;;13.40;99.90;;;;;;4950665;28;20157;-85
2023/05/21 01:53:41;;;;;;;8.40;5.95;;;13.40;99.90;;;;;;4937252;28;20046;-84
2023/05/21 01:56:07;;;;;;;8.25;6.20;;;13.40;99.90;;;;;;4954544;28;20035;-85
2023/05/21 01:58:33;;;;;;;10.60;6.82;;;13.50;99.90;;;;;;4926238;28;20042;-83
2023/05/21 02:00:59;;;;;;;8.65;6.78;;;13.40;99.90;;;;;;4964911;28;20124;-85
2023/05/21 02:03:29;;;;;;;7.55;6.32;;;13.50;99.90;;;;;;4945565;28;20042;-84
2023/05/21 02:05:55;;;;;;;9.23;6.93;;;13.50;99.90;;;;;;4977707;28;20046;-84
2023/05/21 02:08:22;;;;;;;8.05;6.32;;;13.40;99.90;;;;;;4961536;28;20128;-84
2023/05/21 02:10:48;;;;;;;9.98;7.05;;;13.40;99.90;;;;;;4967237;28;20050;-83
2023/05/21 02:13:14;;;;;;;6.57;5.90;;;13.40;99.90;;;;;;4976668;28;20046;-84
2023/05/21 02:15:40;;;;;;;11.10;6.90;;;13.40;99.90;;;;;;4977504;28;20780;-85
2023/05/21 02:18:07;;;;;;;8.98;7.20;;;13.50;99.90;;;;;;4955920;28;20050;-82
2023/05/21 02:20:33;;;;;;;8.73;6.80;;;13.40;99.90;;;;;;4963785;28;20489;-82
2023/05/21 02:23:01;;;;;;;8.10;6.40;;;13.40;99.90;;;;;;4982746;28;20096;-83
2023/05/21 02:25:33;;;;;;;13.75;7.45;;;13.40;99.90;;;;;;4960616;28;20053;-84
2023/05/21 02:27:59;;;;;;;8.85;7.28;;;13.40;99.90;;;;;;4994524;28;20041;-82
2023/05/21 02:30:25;;;;;;;10.82;7.00;;;13.40;99.90;;;;;;4971890;28;20034;-84
2023/05/21 02:32:54;;;;;;;9.65;7.07;;;13.40;99.90;;;;;;4974195;28;20428;-82
2023/05/21 02:35:23;;;;;;;9.70;6.85;;;13.40;99.90;;;;;;4978253;28;20129;-84
2023/05/21 02:37:49;;;;;;;9.55;7.22;;;13.30;99.90;;;;;;4935116;28;20138;-86
2023/05/21 02:40:14;;;;;;;9.48;7.03;;;13.40;99.90;;;;;;4984072;28;20485;-84
2023/05/21 02:42:40;;;;;;;10.50;7.88;;;13.30;99.90;;;;;;4980204;28;20038;-82
2023/05/21 02:45:10;;;;;;;10.32;7.10;;;13.40;99.90;;;;;;4966919;28;20103;-83
2023/05/21 02:47:39;;;;;;;10.50;6.55;;;13.30;99.90;;;;;;4991845;28;20049;-81
2023/05/21 02:50:06;;;;;;;10.00;7.03;;;13.30;99.90;;;;;;4996418;28;20045;-84
2023/05/21 02:52:32;;;;;;;11.98;6.90;;;13.30;99.90;;;;;;4966641;28;20077;-85
2023/05/21 02:54:58;;;;;;;8.38;7.30;;;13.40;99.90;;;;;;4964113;28;20080;-85
2023/05/21 02:57:26;;;;;;;10.52;7.63;;;13.30;99.90;;;;;;4944878;28;20085;-83
2023/05/21 02:59:52;;;;;;;10.18;7.10;;;13.40;99.90;;;;;;4934233;28;20045;-82
2023/05/21 03:02:17;;;;;;;9.70;7.30;;;13.40;99.90;;;;;;4979176;28;20042;-83
2023/05/21 03:04:46;;;;;;;8.95;6.55;;;13.30;99.90;;;;;;4978436;28;20038;-82
2023/05/21 03:07:17;;;;;;;10.80;6.82;;;13.30;99.90;;;;;;4963129;28;20115;-85
2023/05/21 03:09:43;;;;;;;10.18;7.03;;;13.30;99.90;;;;;;4963382;28;20087;-84
2023/05/21 03:12:09;;;;;;;9.60;6.63;;;13.30;99.90;;;;;;4963899;28;20125;-83
2023/05/21 03:14:35;;;;;;;9.13;7.00;;;13.30;99.90;;;;;;5003403;28;20152;-84
2023/05/21 03:17:04;;;;;;;9.13;6.72;;;13.30;99.90;;;;;;4965960;28;20493;-82
2023/05/21 03:19:34;;;;;;;9.23;6.78;;;13.30;99.90;;;;;;4980216;28;20038;-85
2023/05/21 03:22:03;;;;;;;8.85;6.50;;;13.30;99.90;;;;;;4963438;28;20382;-82
2023/05/21 03:24:30;;;;;;;9.13;6.55;;;13.30;99.90;;;;;;4974197;28;20054;-83
2023/05/21 03:26:56;;;;;;;11.85;6.68;;;13.30;99.90;;;;;;4947987;28;20042;-82
2023/05/21 03:29:22;;;;;;;9.00;6.30;;;13.30;99.90;;;;;;4991659;28;20112;-79
2023/05/21 03:31:47;;;;;;;10.18;7.10;;;13.30;99.90;;;;;;4976918;28;20048;-80
2023/05/21 03:34:13;;;;;;;9.68;6.05;;;13.30;99.90;;;;;;4979107;28;20129;-78
2023/05/21 03:36:39;;;;;;;8.70;6.47;;;13.30;99.90;;;;;;4994069;28;20472;-82
2023/05/21 03:39:05;;;;;;;10.57;6.35;;;13.20;99.90;;;;;;4988326;28;20046;-82
2023/05/21 03:41:31;;;;;;;9.30;6.60;;;13.30;99.90;;;;;;4943367;28;20553;-83
2023/05/21 03:43:57;;;;;;;9.88;6.30;;;13.20;99.90;;;;;;4983235;28;20042;-83
2023/05/21 03:46:23;;;;;;;8.75;5.60;;;13.20;99.90;;;;;;4981850;28;20034;-82
2023/05/21 03:48:48;;;;;;;9.98;6.03;;;13.20;99.90;;;;;;4973919;28;20042;-83
2023/05/21 03:51:14;;;;;;;9.82;5.50;;;13.20;99.90;;;;;;4975443;28;20041;-83
2023/05/21 03:53:40;;;;;;;9.02;6.32;;;13.20;99.90;;;;;;4967817;28;20053;-79
2023/05/21 03:56:06;;;;;;;15.38;6.55;;;13.20;99.90;;;;;;4970425;28;20048;-82
2023/05/21 03:58:32;;;;;;;8.80;5.90;;;13.20;99.90;;;;;;4978437;28;20462;-82
2023/05/21 04:00:58;;;;;;;8.68;6.13;;;13.20;99.90;;;;;;4977949;28;20046;-80
2023/05/21 04:03:23;;;;;;;10.55;6.30;;;13.20;99.90;;;;;;4994872;28;20042;-83
2023/05/21 04:05:49;;;;;;;12.68;6.53;;;13.20;99.90;;;;;;4978298;28;20083;-81
2023/05/21 04:08:15;;;;;;;9.60;5.82;;;13.20;99.90;;;;;;4983631;28;20125;-80
2023/05/21 04:10:41;;;;;;;8.57;6.05;;;13.20;99.90;;;;;;4968265;28;20058;-82
2023/05/21 04:13:07;;;;;;;10.25;5.75;;;13.10;99.90;;;;;;4990632;28;21062;-82
2023/05/21 04:15:33;;;;;;;10.02;6.35;;;13.10;99.90;;;;;;4974857;28;20530;-84
2023/05/21 04:17:59;;;;;;;9.35;6.45;;;13.10;99.90;;;;;;4958548;28;20046;-82
2023/05/21 04:20:24;;;;;;;9.13;6.28;;;13.10;99.90;;;;;;4950189;28;20046;-82
2023/05/21 04:22:50;;;;;;;8.25;6.20;;;13.10;99.90;;;;;;4969493;28;20046;-83
2023/05/21 04:25:16;;;;;;;7.70;6.07;;;13.10;99.90;;;;;;4956711;28;20062;-80
2023/05/21 04:27:46;;;;;;;11.60;6.72;;;13.20;99.90;;;;;;4965811;28;20038;-81
2023/05/21 04:30:12;;;;;;;10.02;6.80;;;13.20;99.90;;;;;;4976064;28;20050;-85
2023/05/21 04:32:38;;;;;;;9.35;6.28;;;13.20;99.90;;;;;;4962280;28;20050;-85
2023/05/21 04:35:04;;;;;;;10.57;6.88;;;13.20;99.90;;;;;;4972977;28;20046;-86
2023/05/21 04:37:33;;;;;;;9.43;6.72;;;13.20;99.90;;;;;;4962655;28;20046;-86
2023/05/21 04:40:02;;;;;;;8.73;6.25;;;13.20;99.90;;;;;;4979148;28;20568;-85
2023/05/21 04:42:29;;;;;;;11.30;7.55;;;13.20;99.90;;;;;;4966844;28;20034;-84
2023/05/21 04:44:58;;;;;;;9.20;6.32;;;13.20;99.90;;;;;;4992236;28;20042;-84
2023/05/21 04:47:24;;;;;;;9.93;6.38;;;13.20;99.90;;;;;;4995105;28;20045;-86
2023/05/21 04:49:49;;;;;;;11.73;6.53;;;13.20;99.90;;;;;;4970096;28;20053;-82
2023/05/21 04:52:15;;;;;;;10.10;6.57;;;13.20;99.90;;;;;;4992269;28;20074;-84
2023/05/21 04:54:41;;;;;;;10.38;6.70;;;13.20;99.90;;;;;;4983790;28;20043;-83
2023/05/21 04:57:07;;;;;;;8.15;6.57;;;13.20;99.90;;;;;;4968590;28;20656;-84
2023/05/21 04:59:36;;;;;;;10.63;6.28;;;13.20;99.90;;;;;;4978975;28;20046;-82
2023/05/21 05:02:02;;;;;;;8.48;6.47;;;13.20;99.90;;;;;;4977161;28;20084;-83
2023/05/21 05:04:28;;;;;;;10.35;6.63;;;13.20;99.90;;;;;;4964107;28;20038;-85
2023/05/21 05:06:53;;;;;;;9.68;6.05;;;13.20;99.90;;;;;;4961026;28;20482;-84
2023/05/21 05:09:24;;;;;;;10.70;6.78;;;13.20;99.90;;;;;;4943126;28;20062;-85
2023/05/21 05:11:50;;;;;;;8.68;6.60;;;13.20;99.90;;;;;;4975908;28;20055;-85
2023/05/21 05:14:15;;;;;;;10.73;6.35;;;13.20;99.90;;;;;;4963689;28;20039;-83
2023/05/21 05:16:41;;;;;;;9.85;6.20;;;13.30;99.90;;;;;;4978071;28;20413;-84
2023/05/21 05:19:07;;;;;;;10.13;6.15;;;13.30;99.90;;;;;;4978120;28;20046;-85
2023/05/21 05:21:33;;;;;;;9.55;5.88;;;13.30;99.90;;;;;;4962211;28;20038;-85
2023/05/21 05:23:59;;;;;;;11.00;6.28;;;13.30;99.90;;;;;;4976581;28;20402;-85
2023/05/21 05:26:25;;;;;;;10.57;6.13;;;13.30;99.90;;;;;;4943601;28;20050;-84
2023/05/21 05:28:51;;;;;;;7.53;5.90;;;13.40;99.90;;;;;;4960104;28;20050;-85
2023/05/21 05:31:17;;;;;;;9.55;5.95;;;13.40;99.90;;;;;;4994445;28;20104;-87
2023/05/21 05:33:42;;;;;;;10.77;5.82;;;13.40;99.90;;;;;;4943934;28;20434;-85
2023/05/21 05:36:08;;;;;;;7.32;5.50;;;13.40;99.90;;;;;;4970004;28;20041;-84
2023/05/21 05:38:34;;;;;;;9.30;5.30;;;13.40;99.90;;;;;;4966689;28;20042;-85
2023/05/21 05:41:00;;;;;;;11.40;6.20;;;13.50;99.90;;;;;;4963562;28;20074;-84
2023/05/21 05:43:26;;;;;;;9.40;5.97;;;13.50;99.90;;;;;;4961444;28;20318;-83
2023/05/21 05:45:52;;;;;;;8.43;5.10;;;13.50;99.90;;;;;;4975692;28;20038;-84
2023/05/21 05:48:18;;;;;;;9.32;5.95;;;13.50;99.90;;;;;;4962228;28;20348;-84
2023/05/21 05:50:44;;;;;;;9.68;5.75;;;13.50;99.90;;;;;;4969451;28;20053;-83
2023/05/21 05:53:12;;;;;;;8.20;5.57;;;13.50;99.90;;;;;;4958307;28;20046;-83
2023/05/21 05:55:38;;;;;;;7.20;5.25;;;13.50;99.90;;;;;;4950793;28;20046;-82
2023/05/21 05:58:04;;;;;;;8.73;5.78;;;13.50;99.90;;;;;;4988081;28;20497;-85
2023/05/21 06:00:30;;;;;;;9.25;4.97;;;13.50;99.90;;;;;;4958545;28;20038;-83
2023/05/21 06:02:56;;;;;;;8.38;5.55;;;13.50;99.90;;;;;;4968281;28;20050;-85
2023/05/21 06:05:22;;;;;;;8.10;5.13;;;13.50;99.90;;;;;;4974240;28;20038;-82
2023/05/21 06:07:47;;;;;;;8.98;5.47;;;13.60;99.90;;;;;;4961229;28;20503;-84
2023/05/21 06:10:13;;;;;;;7.18;5.18;;;13.60;99.90;;;;;;4981627;28;20137;-85
2023/05/21 06:12:39;;;;;;;8.52;5.43;;;13.60;99.90;;;;;;4957855;28;20654;-84
2023/05/21 06:15:06;;;;;;;9.68;5.80;;;13.60;99.90;;;;;;4985006;28;20042;-80
2023/05/21 06:17:31;;;;;;;9.07;5.18;;;13.60;99.90;;;;;;4968950;28;20170;-84
2023/05/21 06:19:57;;;;;;;9.07;5.25;;;13.60;99.90;;;;;;4976958;28;20129;-85
2023/05/21 06:22:23;;;;;;;8.75;5.20;;;13.60;99.90;;;;;;4975876;28;20038;-82
2023/05/21 06:24:48;;;;;;;9.35;5.22;;;13.70;99.90;;;;;;4974766;28;20883;-83
2023/05/21 06:27:14;;;;;;;8.48;5.63;;;13.70;99.90;;;;;;4947126;28;20062;-84
2023/05/21 06:29:40;;;;;;;9.90;5.20;;;13.70;99.90;;;;;;4936530;28;20120;-83
2023/05/21 06:32:07;;;;;;;9.05;5.40;;;13.80;99.90;;;;;;4960994;28;20402;-83
2023/05/21 06:34:33;;;;;;;10.15;5.20;;;13.80;99.90;;;;;;4975585;28;20042;-83
2023/05/21 06:36:59;;;;;;;8.00;5.38;;;13.80;99.90;;;;;;4976216;28;20049;-83
2023/05/21 06:39:25;;;;;;;9.88;5.22;;;13.90;99.90;;;;;;4949515;28;20105;-84
2023/05/21 06:41:52;;;;;;;12.23;5.45;;;13.90;99.90;;;;;;4990921;28;20038;-85
2023/05/21 06:44:18;;;;;;;8.40;5.43;;;14.00;99.90;;;;;;4957236;28;20039;-83
2023/05/21 06:46:43;;;;;;;11.00;5.50;;;14.00;99.90;;;;;;4986630;28;20045;-81
2023/05/21 06:49:13;;;;;;;9.98;5.03;;;14.10;99.90;;;;;;4979976;28;20045;-81
2023/05/21 06:51:39;;;;;;;6.45;4.70;;;14.10;99.90;;;;;;4976246;28;20104;-83
2023/05/21 06:54:05;;;;;;;7.03;4.85;;;14.20;99.90;;;;;;4958320;28;20038;-84
2023/05/21 06:56:30;;;;;;;7.00;4.93;;;14.20;99.90;;;;;;4974617;28;20069;-83
2023/05/21 06:58:56;;;;;;;8.68;5.20;;;14.30;99.90;;;;;;4991916;28;20120;-83
2023/05/21 07:01:22;;;;;;;11.73;5.60;;;14.30;99.90;;;;;;4965287;28;20056;-83
2023/05/21 07:03:48;;;;;;;7.88;4.78;;;14.30;99.90;;;;;;4972426;28;20089;-83
2023/05/21 07:06:15;;;;;;;7.50;4.82;;;14.50;99.90;;;;;;4953244;28;20042;-80
2023/05/21 07:08:41;;;;;;;9.90;4.95;;;14.50;99.90;;;;;;4985890;28;20057;-80
2023/05/21 07:11:07;;;;;;;7.43;4.63;;;14.50;99.90;;;;;;4970698;28;20117;-80
2023/05/21 07:13:35;;;;;;;10.70;5.43;;;14.50;99.90;;;;;;4941214;28;20129;-81
2023/05/21 07:16:01;;;;;;;8.30;5.13;;;14.50;99.90;;;;;;4974299;28;20542;-80
2023/05/21 07:18:27;;;;;;;8.27;5.28;;;14.50;99.90;;;;;;4975768;28;20141;-78
2023/05/21 07:20:52;;;;;;;9.52;4.82;;;14.60;99.90;;;;;;4969612;28;20111;-79
2023/05/21 07:23:20;;;;;;;9.93;4.90;;;14.60;99.90;;;;;;4967511;28;20117;-83
2023/05/21 07:25:46;;;;;;;9.13;4.53;;;14.70;99.90;;;;;;4985364;28;20030;-80
2023/05/21 07:28:15;;;;;;;6.68;4.70;;;14.70;99.90;;;;;;4960806;28;20045;-81
2023/05/21 07:30:44;;;;;;;8.57;4.82;;;14.80;99.90;;;;;;4958344;28;20046;-82
2023/05/21 07:33:11;;;;;;;11.85;5.07;;;14.80;99.90;;;;;;4985922;28;20070;-81
2023/05/21 07:35:37;;;;;;;8.27;4.78;;;14.80;99.90;;;;;;4990638;28;20057;-80
2023/05/21 07:38:02;;;;;;;7.35;4.82;;;14.90;99.90;;;;;;4966151;28;20387;-80
2023/05/21 07:40:28;;;;;;;9.40;5.30;;;15.00;99.90;;;;;;4981220;28;20070;-81
2023/05/21 07:42:54;;;;;;;9.27;5.82;;;14.90;99.90;;;;;;4969734;28;20126;-82
2023/05/21 07:45:20;;;;;;;12.63;5.95;;;14.90;99.90;;;;;;4972342;28;20066;-80
2023/05/21 07:47:45;;;;;;;9.95;6.18;;;14.90;99.90;;;;;;4952238;28;20490;-80
2023/05/21 07:50:11;;;;;;;9.75;6.30;;;14.90;99.90;;;;;;4954118;28;20042;-79
2023/05/21 07:52:37;;;;;;;9.98;5.65;;;14.90;99.90;;;;;;4977383;28;20046;-83
2023/05/21 07:55:03;;;;;;;9.25;6.22;;;14.90;99.90;;;;;;4943053;28;20042;-79
2023/05/21 07:57:29;;;;;;;12.82;6.45;;;15.00;99.90;;;;;;4977696;28;20153;-81
2023/05/21 07:59:56;;;;;;;11.80;6.28;;;15.10;99.90;;;;;;4958809;28;20517;-82
2023/05/21 08:02:22;;;;;;;10.48;6.55;;;15.10;99.90;;;;;;4968195;28;20041;-79
2023/05/21 08:04:48;;;;;;;10.18;6.38;;;15.10;99.90;;;;;;4963737;28;20402;-83
2023/05/21 08:07:15;;;;;;;11.18;8.13;;;15.10;99.90;;;;;;4964701;28;20030;-82
2023/05/21 08:09:41;;;;;;;11.60;7.25;;;15.20;99.90;;;;;;4964550;28;20519;-81
2023/05/21 08:12:07;;;;;;;10.90;6.68;;;15.20;99.90;;;;;;4943550;28;20161;-84
2023/05/21 08:14:33;;;;;;;11.23;6.32;;;15.20;99.90;;;;;;4961206;28;20046;-77
2023/05/21 08:16:59;;;;;;;10.80;6.15;;;15.40;99.90;;;;;;4974048;28;20510;-80
2023/05/21 08:19:24;;;;;;;10.25;6.70;;;15.40;99.90;;;;;;4984632;28;20050;-82
2023/05/21 08:21:53;;;;;;;10.73;7.03;;;15.50;99.90;;;;;;4939395;28;20047;-84
2023/05/21 08:24:23;;;;;;;13.95;7.60;;;15.50;99.90;;;;;;4926120;28;20086;-83
2023/05/21 08:26:49;;;;;;;10.82;5.25;;;15.50;99.90;;;;;;4978769;28;20481;-84
2023/05/21 08:29:15;;;;;;;8.13;5.00;;;15.50;99.90;;;;;;4990970;28;20393;-82
2023/05/21 08:31:41;;;;;;;9.20;5.90;;;15.50;99.90;;;;;;4972610;28;20047;-82
2023/05/21 08:34:06;;;;;;;6.65;5.15;;;15.50;99.90;;;;;;4971588;28;20577;-82
2023/05/21 08:36:32;;;;;;;7.82;5.28;;;15.60;99.90;;;;;;4959873;28;20564;-82
2023/05/21 08:38:58;;;;;;;8.05;5.50;;;15.60;99.90;;;;;;4968417;28;20046;-83
2023/05/21 08:41:29;;;;;;;9.38;5.28;;;15.70;99.90;;;;;;4972516;28;20077;-79
2023/05/21 08:43:56;;;;;;;11.45;5.55;;;15.70;99.90;;;;;;4969409;28;20046;-80
2023/05/21 08:46:26;;;;;;;8.45;5.68;;;15.70;99.90;;;;;;4988794;28;20065;-82
2023/05/21 08:48:53;;;;;;;7.78;5.22;;;15.80;99.90;;;;;;4989978;28;20093;-84
2023/05/21 08:51:21;;;;;;;8.00;5.07;;;15.80;99.90;;;;;;4973593;28;20398;-81
2023/05/21 08:53:48;;;;;;;10.77;5.25;;;15.90;99.90;;;;;;4966462;28;20042;-83
2023/05/21 08:56:20;;;;;;;7.18;5.05;;;16.00;99.90;;;;;;4986824;28;20042;-81
2023/05/21 08:58:45;;;;;;;8.25;5.47;;;16.10;99.90;;;;;;4968839;28;20050;-81
2023/05/21 09:01:11;;;;;;;10.30;5.70;;;16.10;99.90;;;;;;4987160;28;20051;-80
2023/05/21 09:03:41;;;;;;;8.52;5.82;;;16.10;99.90;;;;;;4991335;28;20122;-84
2023/05/21 09:06:12;;;;;;;8.15;5.35;;;16.20;99.90;;;;;;4987834;28;20074;-81
2023/05/21 09:08:52;;;;;;;9.23;5.80;;;16.30;99.90;;;;;;4972378;28;20438;-84
2023/05/21 09:11:18;;;;;;;7.88;5.25;;;16.40;99.90;;;;;;4960594;28;20061;-79
2023/05/21 09:13:45;;;;;;;12.43;6.03;;;16.40;99.90;;;;;;4958534;28;20046;-84
2023/05/21 09:16:11;;;;;;;8.85;5.75;;;16.40;99.90;;;;;;4974273;28;20042;-79
2023/05/21 09:18:36;;;;;;;6.70;5.47;;;16.50;99.90;;;;;;4985010;28;20085;-83
2023/05/21 09:21:22;;;;;;;8.40;5.93;;;16.60;99.90;;;;;;4980473;28;20038;-83
2023/05/21 09:23:56;;;;;;;7.30;5.38;;;16.80;99.90;;;;;;4977753;28;20386;-85
2023/05/21 09:26:26;;;;;;;7.55;5.05;;;16.90;99.90;;;;;;4965050;28;20050;-83
2023/05/21 09:28:59;;;;;;;10.10;5.70;;;17.00;99.90;;;;;;4993984;28;20117;-82
2023/05/21 09:31:35;;;;;;;9.88;6.25;;;17.10;99.90;;;;;;4969202;28;20043;-80
2023/05/21 09:34:03;;;;;;;9.38;5.97;;;17.10;99.90;;;;;;4957082;28;20050;-84
2023/05/21 09:36:29;;;;;;;6.40;5.65;;;17.10;99.90;;;;;;4966513;28;20048;-82
2023/05/21 09:39:33;;;;;;;10.63;6.88;;;17.20;99.90;;;;;;4969804;28;20042;-82
2023/05/21 09:41:59;;;;;;;11.82;6.85;;;17.30;99.90;;;;;;4993788;28;20362;-83
2023/05/21 09:44:25;;;;;;;10.80;8.05;;;17.40;99.90;;;;;;4978468;28;20046;-82
2023/05/21 09:46:57;;;;;;;17.55;9.05;;;17.60;99.90;;;;;;4943033;28;20043;-82
2023/05/21 09:49:25;;;;;;;11.95;7.65;;;17.70;99.90;;;;;;4992958;28;20046;-82
2023/05/21 09:51:55;;;;;;;13.63;7.32;;;17.70;99.90;;;;;;4976956;28;20046;-85
2023/05/21 09:54:24;;;;;;;9.90;7.32;;;17.70;99.90;;;;;;4969138;28;20051;-84
2023/05/21 09:56:58;;;;;;;11.57;8.10;;;17.70;99.90;;;;;;4969510;28;20050;-82
2023/05/21 09:59:38;;;;;;;7.97;6.57;;;17.80;99.90;;;;;;4973593;28;20097;-82
2023/05/21 10:02:35;;;;;;;10.63;7.50;;;17.90;99.90;;;;;;4958133;28;20058;-78
2023/05/21 10:05:09;;;;;;;10.80;8.35;;;17.90;99.90;;;;;;4981235;28;20045;-81
2023/05/21 10:07:35;;;;;;;11.50;8.27;;;17.90;99.90;;;;;;4969573;28;20042;-83
2023/05/21 10:10:05;;;;;;;12.10;7.72;;;17.80;99.90;;;;;;4993030;28;20102;-83
2023/05/21 10:12:32;;;;;;;11.02;8.50;;;17.70;99.90;;;;;;4976829;28;20125;-85
2023/05/21 10:15:03;;;;;;;11.57;8.35;;;17.80;99.90;;;;;;4954903;28;20158;-83
2023/05/21 10:17:29;;;;;;;12.90;7.75;;;17.80;99.90;;;;;;4941862;28;20779;-80
2023/05/21 10:19:56;;;;;;;13.80;8.18;;;17.70;99.90;;;;;;4952843;28;20065;-81
2023/05/21 10:22:26;;;;;;;10.90;8.65;;;17.60;99.90;;;;;;4982356;28;20057;-85
2023/05/21 10:24:53;;;;;;;11.30;8.38;;;17.50;99.90;;;;;;4941213;28;20059;-82
2023/05/21 10:27:22;;;;;;;10.38;7.95;;;17.60;99.90;;;;;;4925240;28;20054;-85
2023/05/21 10:29:48;;;;;;;11.18;8.43;;;17.60;99.90;;;;;;4965731;28;20050;-79
2023/05/21 10:32:15;;;;;;;12.95;8.15;;;17.70;99.90;;;;;;4991920;28;20051;-85
2023/05/21 10:34:47;;;;;;;11.82;7.75;;;17.80;99.90;;;;;;4956388;28;20045;-84
2023/05/21 10:37:15;;;;;;;11.45;8.25;;;18.00;99.90;;;;;;4950814;28;20053;-84
2023/05/21 10:39:44;;;;;;;10.70;7.90;;;18.10;99.90;;;;;;4969843;28;20066;-82
2023/05/21 10:42:28;;;;;;;10.68;8.38;;;18.10;99.90;;;;;;4983004;28;20097;-83
2023/05/21 10:45:22;;;;;;;13.88;8.00;;;18.20;99.90;;;;;;4957085;28;20049;-84
2023/05/21 10:47:56;;;;;;;10.80;7.60;;;18.30;99.90;;;;;;4987662;28;20049;-83
2023/05/21 10:50:50;;;;;;;12.38;8.88;;;18.50;99.90;;;;;;4975957;28;20053;-82
2023/05/21 10:54:25;;;;;;;11.63;8.90;;;18.70;99.90;;;;;;4975875;28;20049;-79
2023/05/21 10:57:00;;;;;;;12.20;9.43;;;18.90;99.90;;;;;;4926252;28;20051;-82
2023/05/21 10:59:48;;;;;;;13.55;10.02;;;18.90;99.90;;;;;;4983620;28;20046;-80
2023/05/21 11:02:16;;;;;;;15.73;11.23;;;19.10;99.90;;;;;;4942657;28;20039;-78
2023/05/21 11:04:47;;;;;;;13.48;10.90;;;19.20;99.90;;;;;;4972606;28;20043;-79
2023/05/21 11:07:21;;;;;;;13.85;10.25;;;19.20;99.90;;;;;;4950693;28;20039;-80
2023/05/21 11:09:49;;;;;;;17.38;12.60;;;19.30;99.90;;;;;;4968533;28;20530;-83
2023/05/21 11:12:16;;;;;;;15.07;11.75;;;19.40;99.90;;;;;;4958201;28;20047;-82
2023/05/21 11:14:59;;;;;;;18.27;13.10;;;19.50;99.90;;;;;;4963744;28;20043;-80
2023/05/21 11:17:39;;;;;;;17.00;12.15;;;19.50;99.90;;;;;;4941412;28;20081;-80
2023/05/21 11:20:14;;;;;;;16.33;12.02;;;19.40;99.90;;;;;;4974077;28;20047;-79
2023/05/21 11:22:42;;;;;;;20.80;14.63;;;19.40;99.90;;;;;;4991688;28;20470;-81
2023/05/21 11:25:08;;;;;;;18.17;14.55;;;19.50;99.90;;;;;;4956811;28;20042;-80
2023/05/21 11:27:41;;;;;;;17.17;13.80;;;19.60;99.90;;;;;;4945502;28;20034;-81
2023/05/21 11:30:25;;;;;;;20.00;14.70;;;19.70;99.90;;;;;;4954235;28;20401;-81
2023/05/21 11:33:15;;;;;;;16.45;13.68;;;19.80;99.90;;;;;;4965321;28;20050;-83
2023/05/21 11:35:43;;;;;;;21.58;15.55;;;20.00;99.90;;;;;;4962506;28;20625;-84
2023/05/21 11:38:18;;;;;;;15.82;13.80;;;20.10;99.90;;;;;;4974367;28;20049;-82
2023/05/21 11:40:55;;;;;;;18.48;14.60;;;20.10;99.90;;;;;;4962729;28;20073;-79
2023/05/21 11:43:21;;;;;;;19.85;15.15;;;20.10;99.90;;;;;;4956728;28;20043;-84
2023/05/21 11:45:51;;;;;;;19.83;15.05;;;20.20;99.90;;;;;;4938379;28;20039;-83
2023/05/21 11:48:19;;;;;;;20.48;16.00;;;20.40;99.90;;;;;;4955725;28;20038;-79
2023/05/21 11:50:45;;;;;;;18.63;14.52;;;20.40;99.90;;;;;;4952183;28;20078;-81
2023/05/21 11:53:11;;;;;;;18.98;15.85;;;20.40;99.90;;;;;;4968072;28;20089;-85
2023/05/21 11:55:46;;;;;;;20.27;14.88;;;20.50;99.90;;;;;;4954857;28;20047;-80
2023/05/21 11:58:13;;;;;;;21.83;16.63;;;20.40;99.90;;;;;;4970246;28;20125;-82
2023/05/21 12:00:39;;;;;;;20.23;15.30;;;20.50;99.90;;;;;;4976412;28;20085;-81
2023/05/21 12:03:11;;;;;;;21.50;16.85;;;20.50;99.90;;;;;;4961650;28;20491;-82
2023/05/21 12:05:47;;;;;;;22.02;16.83;;;20.60;99.90;;;;;;4968792;28;20042;-80
2023/05/21 12:08:20;;;;;;;23.45;17.10;;;20.60;99.90;;;;;;4955655;28;20097;-80
2023/05/21 12:10:58;;;;;;;19.55;15.43;;;20.60;99.90;;;;;;4961046;28;20566;-81
2023/05/21 12:13:24;;;;;;;20.50;16.15;;;20.70;99.90;;;;;;4972100;28;20445;-80
2023/05/21 12:15:55;;;;;;;25.02;16.55;;;20.60;99.90;;;;;;4949207;28;20053;-84
2023/05/21 12:18:21;;;;;;;21.77;16.70;;;20.60;99.90;;;;;;4966999;28;20126;-84
2023/05/21 12:20:47;;;;;;;22.55;16.77;;;20.60;99.90;;;;;;4962485;28;20137;-81
2023/05/21 12:23:22;;;;;;;22.48;16.52;;;20.70;99.90;;;;;;4992088;28;20100;-82
2023/05/21 12:25:48;;;;;;;20.40;15.85;;;20.80;99.90;;;;;;4980574;28;20516;-82
2023/05/21 12:28:14;;;;;;;23.48;16.45;;;20.90;99.90;;;;;;4963153;28;20034;-81
2023/05/21 12:30:43;;;;;;;23.08;16.95;;;21.10;99.90;;;;;;4980330;28;20046;-82
2023/05/21 12:33:10;;;;;;;20.25;15.95;;;21.10;99.90;;;;;;4940722;28;20043;-81
2023/05/21 12:35:39;;;;;;;20.10;14.85;;;21.10;99.90;;;;;;4942023;28;20046;-81
2023/05/21 12:38:08;;;;;;;21.05;15.98;;;21.20;99.90;;;;;;4955974;28;20038;-83
2023/05/21 12:40:35;;;;;;;20.90;16.52;;;21.40;99.90;;;;;;4971694;28;20043;-82
2023/05/21 12:43:02;;;;;;;22.48;16.02;;;21.40;99.90;;;;;;4974310;28;20039;-83
2023/05/21 12:45:30;;;;;;;19.48;16.38;;;21.40;99.90;;;;;;4991353;28;20034;-82
2023/05/21 12:47:56;;;;;;;22.30;17.17;;;21.40;99.90;;;;;;4968097;28;20043;-81